EGBJ/GLO METAR and TAF weather

Enter ICAO airport designator
Station Type Date Time Source
EGBJ METAR 2018/07/21 18:20 UTC NOAA

EGBJ 211820Z 30002KT 9999 SCT040 24/14 Q1014


Station Type Date Time Source
EGBJ Decoded METAR 2018/07/21 18:20 UTC NOAA

Staverton Private , United Kingdom (EGBJ) 51-54N 002-10W
Jul 21, 2018 - 02:20 PM EDT / 2018.07.21 1820 UTC
Wind: from the WNW (300 degrees) at 2 MPH (2 KT):0
Visibility: greater than 7 mile(s):0
Sky conditions: partly cloudy
Temperature: 75 F (24 C)
Dew Point: 57 F (14 C)
Relative Humidity: 53%
Pressure (altimeter): 29.94 in. Hg (1014 hPa)
ob: EGBJ 211820Z 30002KT 9999 SCT040 24/14 Q1014
cycle: 18

Station Type Date Time Source
EGBJ TAF UTC NOAA

Error!


Example: see airport list